createdAt,value
2022-12-10T00:01:40.217Z,100185.09
2022-12-10T00:04:07.982Z,100181.23
2022-12-10T00:06:37.498Z,100186.23
2022-12-10T00:09:07.569Z,100184.30
2022-12-10T00:11:35.654Z,100178.52
2022-12-10T00:14:03.337Z,100186.79
2022-12-10T00:16:32.666Z,100176.78
2022-12-10T00:19:00.421Z,100178.25
2022-12-10T00:21:30.910Z,100173.09
2022-12-10T00:23:59.986Z,100175.21
2022-12-10T00:26:30.213Z,100173.31
2022-12-10T00:28:58.967Z,100173.64
2022-12-10T00:31:29.828Z,100169.69
2022-12-10T00:34:03.229Z,100163.57
2022-12-10T00:36:36.915Z,100176.36
2022-12-10T00:39:05.683Z,100167.53
2022-12-10T00:41:33.532Z,100168.31
2022-12-10T00:44:01.319Z,100178.98
2022-12-10T00:46:30.184Z,100178.84
2022-12-10T00:48:57.934Z,100177.70
2022-12-10T00:51:27.713Z,100178.05
2022-12-10T00:53:58.003Z,100174.33
2022-12-10T00:56:28.451Z,100176.55
2022-12-10T00:58:56.888Z,100182.34
2022-12-10T01:01:39.894Z,100183.26
2022-12-10T01:04:11.903Z,100185.97
2022-12-10T01:06:45.843Z,100179.07
2022-12-10T01:09:16.080Z,100172.92
2022-12-10T01:11:46.068Z,100173.19
2022-12-10T01:14:17.077Z,100180.41
2022-12-10T01:16:45.370Z,100184.60
2022-12-10T01:19:13.844Z,100176.23
2022-12-10T01:21:42.012Z,100174.10
2022-12-10T01:24:10.113Z,100171.02
2022-12-10T01:26:38.201Z,100160.98
2022-12-10T01:29:06.976Z,100167.66
2022-12-10T01:31:39.510Z,100164.48
2022-12-10T01:34:09.038Z,100160.53
2022-12-10T01:36:39.394Z,100162.23
2022-12-10T01:39:09.695Z,100160.86
2022-12-10T01:41:58.224Z,100166.38
2022-12-10T01:44:25.782Z,100167.33
2022-12-10T01:46:56.788Z,100175.80
2022-12-10T01:49:36.867Z,100165.73
2022-12-10T01:52:06.706Z,100172.86
2022-12-10T01:54:39.060Z,100174.33
2022-12-10T01:57:10.802Z,100169.55
2022-12-10T01:59:40.288Z,100172.27
2022-12-10T02:02:22.249Z,100178.94
2022-12-10T02:05:07.003Z,100183.13
2022-12-10T02:08:17.010Z,100184.04
2022-12-10T02:11:15.764Z,100194.12
2022-12-10T02:13:49.241Z,100189.57
2022-12-10T02:16:35.488Z,100199.18
2022-12-10T02:19:09.165Z,100197.94
2022-12-10T02:21:40.505Z,100200.33
2022-12-10T02:24:13.753Z,100198.40
2022-12-10T02:26:50.645Z,100197.52
2022-12-10T02:29:25.406Z,100188.20
2022-12-10T02:31:59.180Z,100189.14
2022-12-10T02:34:30.541Z,100190.71
2022-12-10T02:37:03.977Z,100190.26
2022-12-10T02:39:38.602Z,100188.55
2022-12-10T02:42:08.449Z,100190.81
2022-12-10T02:44:39.086Z,100193.63
2022-12-10T02:47:08.787Z,100193.03
2022-12-10T02:49:38.960Z,100179.59
2022-12-10T02:52:16.670Z,100180.74
2022-12-10T02:54:46.567Z,100180.41
2022-12-10T02:57:17.233Z,100180.31
2022-12-10T03:00:02.977Z,100175.21
2022-12-10T03:02:48.555Z,100179.40
2022-12-10T03:05:24.354Z,100181.00
2022-12-10T03:08:00.948Z,100174.56
2022-12-10T03:10:50.644Z,100170.93
2022-12-10T03:13:21.695Z,100176.69
2022-12-10T03:15:51.847Z,100183.26
2022-12-10T03:18:24.293Z,100180.22
2022-12-10T03:20:55.261Z,100171.39
2022-12-10T03:23:23.452Z,100166.88
2022-12-10T03:25:52.382Z,100168.25
2022-12-10T03:28:21.861Z,100162.27
2022-12-10T03:30:51.292Z,100167.76
2022-12-10T03:33:20.090Z,100169.03
2022-12-10T03:35:49.453Z,100169.39
2022-12-10T03:38:17.751Z,100177.05
2022-12-10T03:40:45.462Z,100169.03
2022-12-10T03:43:16.284Z,100164.06
2022-12-10T03:45:44.082Z,100165.86
2022-12-10T03:48:11.809Z,100168.22
2022-12-10T03:50:39.530Z,100169.36
2022-12-10T03:53:07.247Z,100174.56
2022-12-10T03:55:35.059Z,100165.37
2022-12-10T03:58:02.743Z,100166.19
2022-12-10T04:00:30.358Z,100168.48
2022-12-10T04:02:58.073Z,100172.86
2022-12-10T04:05:25.724Z,100174.46
2022-12-10T04:07:53.515Z,100172.86
2022-12-10T04:10:21.212Z,100161.55
2022-12-10T04:13:08.764Z,100166.77
2022-12-10T04:15:59.227Z,100171.29
2022-12-10T04:18:26.868Z,100164.39
2022-12-10T04:21:13.348Z,100174.33
2022-12-10T04:23:59.590Z,100183.26
2022-12-10T04:26:45.985Z,100180.77
2022-12-10T04:29:13.738Z,100184.30
2022-12-10T04:31:41.437Z,100175.48
2022-12-10T04:34:09.151Z,100179.43
2022-12-10T04:36:36.811Z,100181.23
2022-12-10T04:39:05.202Z,100182.05
2022-12-10T04:41:32.905Z,100178.09
2022-12-10T04:44:00.679Z,100183.06
2022-12-10T04:46:29.704Z,100177.41
2022-12-10T04:48:57.396Z,100179.34
2022-12-10T04:51:25.068Z,100182.05
2022-12-10T04:53:52.777Z,100180.22
2022-12-10T04:56:20.626Z,100181.03
2022-12-10T04:58:48.525Z,100183.52
2022-12-10T05:01:16.319Z,100183.16
2022-12-10T05:03:44.004Z,100178.74
2022-12-10T05:06:14.884Z,100176.72
2022-12-10T05:08:43.364Z,100174.23
2022-12-10T05:11:16.732Z,100173.09
2022-12-10T05:13:44.543Z,100170.14
2022-12-10T05:16:14.562Z,100173.31
2022-12-10T05:18:42.380Z,100181.79
2022-12-10T05:21:14.605Z,100179.79
2022-12-10T05:23:45.511Z,100182.27
2022-12-10T05:26:15.043Z,100186.88
2022-12-10T05:28:49.098Z,100187.48
2022-12-10T05:31:19.746Z,100191.20
2022-12-10T05:33:48.177Z,100179.43
2022-12-10T05:36:19.299Z,100186.79
2022-12-10T05:38:47.046Z,100189.37
2022-12-10T05:41:26.209Z,100198.56
2022-12-10T05:43:57.019Z,100198.89
2022-12-10T05:46:28.129Z,100203.73
2022-12-10T05:48:56.077Z,100203.73
2022-12-10T05:51:27.201Z,100207.72
2022-12-10T05:53:55.851Z,100213.24
2022-12-10T05:56:25.035Z,100209.05
2022-12-10T05:58:54.901Z,100209.74
2022-12-10T06:01:28.491Z,100199.12
2022-12-10T06:03:56.652Z,100211.31
2022-12-10T06:06:26.028Z,100205.55
2022-12-10T06:08:54.125Z,100210.86
2022-12-10T06:11:21.872Z,100215.73
2022-12-10T06:13:55.841Z,100220.60
2022-12-10T06:16:25.017Z,100222.63
2022-12-10T06:18:53.069Z,100218.25
2022-12-10T06:21:21.843Z,100221.38
2022-12-10T06:23:53.302Z,100223.91
2022-12-10T06:26:26.924Z,100227.96
2022-12-10T06:28:56.021Z,100219.00
2022-12-10T06:31:24.791Z,100223.74
2022-12-10T06:33:54.500Z,100228.97
2022-12-10T06:36:22.449Z,100225.80
2022-12-10T06:38:50.430Z,100223.41
2022-12-10T06:41:20.165Z,100227.37
2022-12-10T06:43:48.065Z,100227.37
2022-12-10T06:46:18.339Z,100233.84
2022-12-10T06:48:46.470Z,100233.38
2022-12-10T06:51:15.458Z,100231.69
2022-12-10T06:53:43.292Z,100235.09
2022-12-10T06:56:15.627Z,100233.06
2022-12-10T06:58:44.309Z,100231.33
2022-12-10T07:01:28.162Z,100239.96
2022-12-10T07:03:58.166Z,100242.77
2022-12-10T07:06:27.598Z,100247.19
2022-12-10T07:08:55.224Z,100252.26
2022-12-10T07:11:24.782Z,100235.64
2022-12-10T07:13:53.430Z,100240.74
2022-12-10T07:16:33.695Z,100247.19
2022-12-10T07:19:04.262Z,100248.43
2022-12-10T07:21:37.319Z,100241.43
2022-12-10T07:24:11.585Z,100245.95
2022-12-10T07:26:41.473Z,100242.67
2022-12-10T07:29:15.783Z,100245.03
2022-12-10T07:31:44.231Z,100246.80
2022-12-10T07:34:12.976Z,100253.14
2022-12-10T07:36:40.951Z,100260.13
2022-12-10T07:39:11.095Z,100261.12
2022-12-10T07:41:39.304Z,100253.30
2022-12-10T07:44:08.802Z,100258.80
2022-12-10T07:46:36.553Z,100252.81
2022-12-10T07:49:05.165Z,100255.20
2022-12-10T07:51:33.374Z,100259.16
2022-12-10T07:54:01.060Z,100267.88
2022-12-10T07:56:28.742Z,100270.80
2022-12-10T07:58:56.461Z,100264.81
2022-12-10T08:01:27.780Z,100263.24
2022-12-10T08:04:00.030Z,100267.63
2022-12-10T08:06:30.766Z,100274.06
2022-12-10T08:09:01.342Z,100272.04
2022-12-10T08:11:29.813Z,100266.94
2022-12-10T08:13:58.034Z,100266.94
2022-12-10T08:16:28.843Z,100270.47
2022-12-10T08:19:02.232Z,100273.73
2022-12-10T08:21:32.619Z,100274.06
2022-12-10T08:24:01.031Z,100280.28
2022-12-10T08:26:31.676Z,100290.41
2022-12-10T08:28:59.677Z,100286.79
2022-12-10T08:31:33.058Z,100286.55
2022-12-10T08:34:04.836Z,100305.06
2022-12-10T08:36:32.851Z,100299.90
2022-12-10T08:39:00.638Z,100299.54
2022-12-10T08:41:28.284Z,100303.13
2022-12-10T08:43:56.804Z,100309.12
2022-12-10T08:46:25.264Z,100305.46
2022-12-10T08:48:52.853Z,100302.05
2022-12-10T08:51:21.308Z,100305.36
2022-12-10T08:53:49.474Z,100310.10
2022-12-10T08:56:17.144Z,100316.91
2022-12-10T08:58:44.823Z,100313.44
2022-12-10T09:01:15.427Z,100325.21
2022-12-10T09:03:43.318Z,100321.68
2022-12-10T09:06:13.644Z,100324.95
2022-12-10T09:08:41.479Z,100330.48
2022-12-10T09:11:12.291Z,100335.28
2022-12-10T09:13:39.965Z,100335.61
2022-12-10T09:16:07.962Z,100340.91
2022-12-10T09:18:35.817Z,100347.34
2022-12-10T09:21:08.243Z,100343.75
2022-12-10T09:23:36.340Z,100340.45
2022-12-10T09:26:08.392Z,100346.56
2022-12-10T09:28:36.057Z,100344.89
2022-12-10T09:31:10.967Z,100350.55
2022-12-10T09:33:41.957Z,100354.57
2022-12-10T09:36:11.593Z,100359.19
2022-12-10T09:38:41.300Z,100367.66
2022-12-10T09:41:50.560Z,100373.73
2022-12-10T09:44:27.931Z,100370.56
2022-12-10T09:46:58.390Z,100381.52
2022-12-10T09:49:44.409Z,100380.70
2022-12-10T09:52:18.931Z,100381.88
2022-12-10T09:54:52.069Z,100384.85
2022-12-10T09:57:37.552Z,100385.77
2022-12-10T10:00:24.120Z,100383.35
2022-12-10T10:02:53.744Z,100391.13
2022-12-10T10:05:28.431Z,100383.48
2022-12-10T10:07:59.887Z,100387.50
2022-12-10T10:10:34.161Z,100390.18
2022-12-10T10:13:40.459Z,100384.69
2022-12-10T10:16:28.704Z,100389.82
2022-12-10T10:19:00.482Z,100390.51
2022-12-10T10:21:35.321Z,100384.85
2022-12-10T10:24:09.868Z,100393.32
2022-12-10T10:26:39.525Z,100390.51
2022-12-10T10:29:10.344Z,100391.23
2022-12-10T10:31:41.316Z,100398.39
2022-12-10T10:34:23.840Z,100396.33
2022-12-10T10:37:05.168Z,100396.76
2022-12-10T10:39:36.883Z,100405.62
2022-12-10T10:42:11.866Z,100394.34
2022-12-10T10:44:40.927Z,100405.68
2022-12-10T10:47:34.060Z,100403.30
2022-12-10T10:50:04.538Z,100394.50
2022-12-10T10:52:39.186Z,100401.79
2022-12-10T10:55:07.313Z,100406.83
2022-12-10T10:57:38.536Z,100402.84
2022-12-10T11:00:19.183Z,100409.80
2022-12-10T11:02:47.011Z,100411.93
2022-12-10T11:05:35.437Z,100416.41
2022-12-10T11:08:15.541Z,100405.55
2022-12-10T11:10:57.403Z,100412.68
2022-12-10T11:13:28.155Z,100413.76
2022-12-10T11:15:59.337Z,100415.72
2022-12-10T11:18:38.545Z,100413.53
2022-12-10T11:21:18.406Z,100408.95
2022-12-10T11:23:49.139Z,100405.68
2022-12-10T11:26:27.165Z,100416.45
2022-12-10T11:29:10.157Z,100411.87
2022-12-10T11:31:56.097Z,100420.01
2022-12-10T11:34:26.923Z,100413.70
2022-12-10T11:36:57.432Z,100425.44
2022-12-10T11:39:53.599Z,100432.76
2022-12-10T11:42:54.196Z,100427.98
2022-12-10T11:45:49.705Z,100438.41
2022-12-10T11:48:17.740Z,100431.95
2022-12-10T11:50:49.827Z,100436.20
2022-12-10T11:53:39.200Z,100433.97
2022-12-10T11:56:15.327Z,100436.95
2022-12-10T11:59:17.924Z,100445.02
2022-12-10T12:01:48.133Z,100448.65
2022-12-10T12:04:37.505Z,100443.02
2022-12-10T12:07:23.387Z,100438.91
2022-12-10T12:10:09.683Z,100454.57
2022-12-10T12:12:59.536Z,100456.01
2022-12-10T12:15:41.868Z,100453.39
2022-12-10T12:18:23.279Z,100469.38
2022-12-10T12:20:51.304Z,100463.73
2022-12-10T12:23:29.065Z,100467.72
2022-12-10T12:26:03.721Z,100460.09
2022-12-10T12:28:44.228Z,100464.15
2022-12-10T12:31:17.177Z,100463.37
2022-12-10T12:33:52.450Z,100473.14
2022-12-10T12:36:24.367Z,100479.29
2022-12-10T12:39:16.894Z,100481.41
2022-12-10T12:42:05.907Z,100483.34
2022-12-10T12:44:36.624Z,100488.94
2022-12-10T12:47:17.931Z,100493.05
2022-12-10T12:49:46.570Z,100506.83
2022-12-10T12:52:40.020Z,100498.95
2022-12-10T12:55:29.005Z,100495.31
2022-12-10T12:58:35.419Z,100503.49
2022-12-10T13:01:33.326Z,100502.05
2022-12-10T13:04:01.264Z,100502.93
2022-12-10T13:06:33.113Z,100508.91
2022-12-10T13:09:26.497Z,100514.58
2022-12-10T13:12:06.035Z,100521.64
2022-12-10T13:14:55.473Z,100516.30
2022-12-10T13:17:35.991Z,100523.53
2022-12-10T13:20:28.275Z,100528.63
2022-12-10T13:23:05.265Z,100533.21
2022-12-10T13:25:48.010Z,100532.85
2022-12-10T13:28:28.142Z,100533.70
2022-12-10T13:31:09.575Z,100537.34
2022-12-10T13:34:27.845Z,100540.60
2022-12-10T13:37:05.974Z,100553.85
2022-12-10T13:39:47.568Z,100573.20
2022-12-10T13:42:33.780Z,100568.43
2022-12-10T13:45:11.502Z,100571.70
2022-12-10T13:47:39.062Z,100578.50
2022-12-10T13:50:26.326Z,100576.84
2022-12-10T13:53:16.583Z,100590.54
2022-12-10T13:56:12.998Z,100590.54
2022-12-10T13:58:51.213Z,100588.84
2022-12-10T14:01:39.101Z,100592.11
2022-12-10T14:04:12.315Z,100594.20
2022-12-10T14:06:41.893Z,100602.67
2022-12-10T14:09:22.725Z,100597.83
2022-12-10T14:12:02.937Z,100612.41
2022-12-10T14:14:48.005Z,100612.05
2022-12-10T14:17:23.250Z,100616.66
2022-12-10T14:19:55.334Z,100623.66
2022-12-10T14:22:35.994Z,100624.55
2022-12-10T14:25:09.566Z,100635.44
2022-12-10T14:27:38.114Z,100633.41
2022-12-10T14:30:17.635Z,100638.70
2022-12-10T14:32:46.184Z,100651.98
2022-12-10T14:35:25.145Z,100656.40
2022-12-10T14:37:56.180Z,100661.30
2022-12-10T14:40:26.434Z,100660.58
2022-12-10T14:43:02.296Z,100665.06
2022-12-10T14:45:38.447Z,100653.42
2022-12-10T14:48:09.443Z,100662.22
2022-12-10T14:50:37.115Z,100667.41
2022-12-10T14:53:05.298Z,100663.39
2022-12-10T14:55:36.162Z,100666.63
2022-12-10T14:58:07.051Z,100673.07
2022-12-10T15:00:35.754Z,100673.07
2022-12-10T15:03:10.633Z,100681.90
2022-12-10T15:05:39.029Z,100680.17
2022-12-10T15:08:09.628Z,100680.49
2022-12-10T15:10:41.848Z,100690.08
2022-12-10T15:13:18.030Z,100688.84
2022-12-10T15:15:50.038Z,100691.65
2022-12-10T15:18:20.434Z,100693.31
2022-12-10T15:20:54.709Z,100685.30
2022-12-10T15:23:34.222Z,100696.19
2022-12-10T15:26:12.842Z,100700.28
2022-12-10T15:28:43.374Z,100698.68
2022-12-10T15:31:14.254Z,100699.92
2022-12-10T15:33:54.728Z,100699.95
2022-12-10T15:36:31.249Z,100702.38
2022-12-10T15:39:00.107Z,100701.26
2022-12-10T15:41:58.051Z,100706.10
2022-12-10T15:44:31.892Z,100713.30
2022-12-10T15:47:21.296Z,100704.76
2022-12-10T15:49:50.828Z,100709.53
2022-12-10T15:52:21.076Z,100708.32
2022-12-10T15:54:51.687Z,100712.38
2022-12-10T15:57:20.681Z,100716.04
2022-12-10T15:59:50.793Z,100720.45
2022-12-10T16:02:36.993Z,100728.11
2022-12-10T16:05:12.135Z,100729.38
2022-12-10T16:07:39.913Z,100724.97
2022-12-10T16:10:08.901Z,100724.61
2022-12-10T16:12:40.718Z,100728.66
2022-12-10T16:15:13.069Z,100730.56
2022-12-10T16:17:40.683Z,100730.52
2022-12-10T16:20:23.816Z,100739.29
2022-12-10T16:22:51.908Z,100734.52
2022-12-10T16:25:19.859Z,100740.50
2022-12-10T16:27:47.588Z,100740.50
2022-12-10T16:30:47.098Z,100740.92
2022-12-10T16:33:20.002Z,100738.02
2022-12-10T16:35:48.852Z,100742.79
2022-12-10T16:38:16.984Z,100738.02
2022-12-10T16:40:46.145Z,100738.05
2022-12-10T16:43:19.432Z,100738.02
2022-12-10T16:45:47.569Z,100742.16
2022-12-10T16:48:15.642Z,100744.20
2022-12-10T16:50:44.516Z,100749.52
2022-12-10T16:53:25.681Z,100757.54
2022-12-10T16:55:53.810Z,100758.39
2022-12-10T16:58:23.053Z,100758.48
2022-12-10T17:00:54.632Z,100765.35
2022-12-10T17:03:26.239Z,100768.27
2022-12-10T17:05:59.382Z,100773.92
2022-12-10T17:08:28.994Z,100773.13
2022-12-10T17:11:17.045Z,100780.00
2022-12-10T17:13:46.874Z,100780.00
2022-12-10T17:16:22.250Z,100779.19
2022-12-10T17:18:50.481Z,100777.58
2022-12-10T17:21:18.343Z,100777.13
2022-12-10T17:23:46.324Z,100778.59
2022-12-10T17:26:25.960Z,100778.92
2022-12-10T17:28:54.194Z,100773.27
2022-12-10T17:31:22.135Z,100776.96
2022-12-10T17:33:52.051Z,100775.72
2022-12-10T17:36:20.183Z,100783.77
2022-12-10T17:38:47.912Z,100785.79
2022-12-10T17:41:17.750Z,100785.01
2022-12-10T17:43:45.776Z,100790.27
2022-12-10T17:46:14.719Z,100788.27
2022-12-10T17:48:42.888Z,100780.13
2022-12-10T17:51:14.338Z,100785.79
2022-12-10T17:53:43.128Z,100796.58
2022-12-10T17:56:19.645Z,100792.92
2022-12-10T17:58:48.770Z,100790.89
2022-12-10T18:01:17.036Z,100800.51
2022-12-10T18:03:45.095Z,100803.74
2022-12-10T18:06:27.220Z,100804.10
2022-12-10T18:09:00.863Z,100807.34
2022-12-10T18:11:33.159Z,100802.83
2022-12-10T18:14:01.137Z,100811.69
2022-12-10T18:16:33.252Z,100814.89
2022-12-10T18:19:03.401Z,100823.40
2022-12-10T18:21:31.291Z,100820.09
2022-12-10T18:23:58.976Z,100824.48
2022-12-10T18:26:27.365Z,100822.38
2022-12-10T18:28:56.637Z,100826.34
2022-12-10T18:31:34.491Z,100825.03
2022-12-10T18:34:08.593Z,100825.36
2022-12-10T18:36:39.474Z,100834.68
2022-12-10T18:39:14.560Z,100831.05
2022-12-10T18:41:42.173Z,100831.15
2022-12-10T18:44:09.832Z,100829.87
2022-12-10T18:46:40.253Z,100834.41
2022-12-10T18:49:08.390Z,100834.41
2022-12-10T18:51:36.099Z,100834.77
2022-12-10T18:54:03.916Z,100828.70
2022-12-10T18:56:33.736Z,100823.59
2022-12-10T18:59:02.172Z,100827.29
2022-12-10T19:01:30.752Z,100824.15
2022-12-10T19:03:59.456Z,100819.30
2022-12-10T19:06:29.307Z,100824.57
2022-12-10T19:11:52.830Z,100832.65
2022-12-10T19:14:21.891Z,100829.34
2022-12-10T19:16:49.605Z,100830.98
2022-12-10T19:19:19.142Z,100831.77
2022-12-10T19:21:47.888Z,100830.85
2022-12-10T19:24:15.645Z,100828.34
2022-12-10T19:26:44.579Z,100838.34
2022-12-10T19:29:15.939Z,100830.33
2022-12-10T19:31:44.354Z,100834.02
2022-12-10T19:34:13.448Z,100830.88
2022-12-10T19:36:42.770Z,100835.85
2022-12-10T19:39:36.932Z,100837.13
2022-12-10T19:42:04.742Z,100843.63
2022-12-10T19:44:33.253Z,100840.53
2022-12-10T19:47:01.111Z,100846.16
2022-12-10T19:49:28.914Z,100836.93
2022-12-10T19:51:56.579Z,100839.35
2022-12-10T19:54:24.167Z,100841.02
2022-12-10T19:56:51.812Z,100844.62
2022-12-10T19:59:21.057Z,100853.41
2022-12-10T20:01:49.494Z,100838.53
2022-12-10T20:04:19.012Z,100855.44
2022-12-10T20:06:50.029Z,100853.84
2022-12-10T20:09:28.390Z,100840.07
2022-12-10T20:11:56.787Z,100846.45
2022-12-10T20:14:25.234Z,100844.81
2022-12-10T20:16:53.553Z,100847.63
2022-12-10T20:19:23.843Z,100848.77
2022-12-10T20:21:52.982Z,100847.89
2022-12-10T20:24:21.308Z,100851.02
2022-12-10T20:26:50.724Z,100849.00
2022-12-10T20:29:24.085Z,100847.46
2022-12-10T20:31:53.848Z,100847.89
2022-12-10T20:34:22.675Z,100849.91
2022-12-10T20:36:50.971Z,100841.48
2022-12-10T20:39:27.401Z,100848.31
2022-12-10T20:41:56.083Z,100846.61
2022-12-10T20:44:25.008Z,100846.97
2022-12-10T20:46:54.234Z,100852.66
2022-12-10T20:49:23.954Z,100860.31
2022-12-10T20:51:52.325Z,100863.55
2022-12-10T20:54:20.614Z,100853.91
2022-12-10T20:56:48.333Z,100853.55
2022-12-10T20:59:18.187Z,100858.41
2022-12-10T21:01:45.976Z,100854.91
2022-12-10T21:04:13.721Z,100865.38
2022-12-10T21:06:44.381Z,100861.39
2022-12-10T21:09:13.550Z,100856.72
2022-12-10T21:11:41.275Z,100861.20
2022-12-10T21:14:18.456Z,100860.02
2022-12-10T21:16:56.679Z,100862.57
2022-12-10T21:19:24.395Z,100859.82
2022-12-10T21:21:52.259Z,100866.23
2022-12-10T21:24:20.047Z,100861.03
2022-12-10T21:26:47.735Z,100852.62
2022-12-10T21:29:15.725Z,100855.80
2022-12-10T21:31:43.557Z,100857.83
2022-12-10T21:34:11.336Z,100850.54
2022-12-10T21:36:39.546Z,100856.98
2022-12-10T21:39:07.363Z,100850.60
2022-12-10T21:41:53.686Z,100852.17
2022-12-10T21:44:21.454Z,100848.57
2022-12-10T21:46:49.264Z,100849.75
2022-12-10T21:49:17.092Z,100842.46
2022-12-10T21:51:44.772Z,100836.38
2022-12-10T21:54:12.435Z,100837.88
2022-12-10T21:56:41.278Z,100838.24
2022-12-10T21:59:09.265Z,100836.54
2022-12-10T22:01:37.448Z,100835.62
2022-12-10T22:04:05.294Z,100836.45
2022-12-10T22:06:33.035Z,100840.50
2022-12-10T22:09:00.688Z,100840.53
2022-12-10T22:11:28.524Z,100832.55
2022-12-10T22:13:56.840Z,100831.02
2022-12-10T22:16:25.062Z,100849.55
2022-12-10T22:18:52.720Z,100850.83
2022-12-10T22:21:24.431Z,100852.92
2022-12-10T22:23:53.238Z,100853.35
2022-12-10T22:26:22.055Z,100848.57
2022-12-10T22:28:50.171Z,100855.44
2022-12-10T22:31:18.407Z,100848.21
2022-12-10T22:33:46.294Z,100847.07
2022-12-10T22:36:14.737Z,100860.77
2022-12-10T22:38:42.424Z,100846.74
2022-12-10T22:41:10.579Z,100853.61
2022-12-10T22:43:50.223Z,100860.90
2022-12-10T22:46:18.765Z,100857.30
2022-12-10T22:48:46.710Z,100848.02
2022-12-10T22:51:14.410Z,100847.66
2022-12-10T22:53:42.125Z,100849.30
2022-12-10T22:56:12.479Z,100849.26
2022-12-10T22:58:40.377Z,100841.19
2022-12-10T23:01:08.364Z,100839.16
2022-12-10T23:03:36.020Z,100837.91
2022-12-10T23:06:03.786Z,100836.28
2022-12-10T23:08:32.351Z,100835.43
2022-12-10T23:11:00.120Z,100842.62
2022-12-10T23:13:31.095Z,100842.66
2022-12-10T23:16:01.273Z,100844.62
2022-12-10T23:18:28.993Z,100851.45
2022-12-10T23:20:56.748Z,100847.76
2022-12-10T23:23:24.370Z,100851.38
2022-12-10T23:25:52.584Z,100842.59
2022-12-10T23:28:20.885Z,100847.40
2022-12-10T23:30:57.148Z,100838.57
2022-12-10T23:33:25.033Z,100835.76
2022-12-10T23:35:52.622Z,100839.02
2022-12-10T23:38:20.340Z,100839.84
2022-12-10T23:40:47.987Z,100836.64
2022-12-10T23:43:15.661Z,100828.23
2022-12-10T23:45:44.905Z,100831.51
2022-12-10T23:48:12.789Z,100831.93
2022-12-10T23:50:40.507Z,100823.13
2022-12-10T23:53:08.561Z,100822.28
2022-12-10T23:55:36.231Z,100824.38
2022-12-10T23:58:04.065Z,100821.99
